sensor_id;sensor_type;location;lat;lon;timestamp;pressure;altitude;pressure_sealevel;temperature;humidity
8697;BME280;4385;48.848;8.924;2023-08-06T00:00:20;96657.00;;;20.94;100.00
8697;BME280;4385;48.848;8.924;2023-08-06T00:02:45;96648.50;;;20.93;100.00
8697;BME280;4385;48.848;8.924;2023-08-06T00:05:10;96657.88;;;20.93;100.00
8697;BME280;4385;48.848;8.924;2023-08-06T00:07:36;96654.53;;;20.92;100.00
8697;BME280;4385;48.848;8.924;2023-08-06T00:10:01;96651.13;;;20.92;100.00
8697;BME280;4385;48.848;8.924;2023-08-06T00:12:26;96660.53;;;20.91;100.00
8697;BME280;4385;48.848;8.924;2023-08-06T00:14:53;96653.69;;;20.92;100.00
8697;BME280;4385;48.848;8.924;2023-08-06T00:17:19;96649.47;;;20.91;100.00
8697;BME280;4385;48.848;8.924;2023-08-06T00:19:44;96646.94;;;20.89;100.00
8697;BME280;4385;48.848;8.924;2023-08-06T00:22:09;96643.47;;;20.90;100.00
8697;BME280;4385;48.848;8.924;2023-08-06T00:24:35;96651.22;;;20.89;100.00
8697;BME280;4385;48.848;8.924;2023-08-06T00:27:01;96652.94;;;20.88;100.00
8697;BME280;4385;48.848;8.924;2023-08-06T00:29:26;96640.88;;;20.92;100.00
8697;BME280;4385;48.848;8.924;2023-08-06T00:31:51;96645.16;;;20.91;100.00
8697;BME280;4385;48.848;8.924;2023-08-06T00:34:16;96640.97;;;20.89;100.00
8697;BME280;4385;48.848;8.924;2023-08-06T00:36:42;96637.66;;;20.87;100.00
8697;BME280;4385;48.848;8.924;2023-08-06T00:39:07;96634.34;;;20.85;100.00
8697;BME280;4385;48.848;8.924;2023-08-06T00:41:32;96633.44;;;20.86;100.00
8697;BME280;4385;48.848;8.924;2023-08-06T00:43:57;96622.28;;;20.87;100.00
8697;BME280;4385;48.848;8.924;2023-08-06T00:46:23;96619.72;;;20.87;100.00
8697;BME280;4385;48.848;8.924;2023-08-06T00:48:50;96618.84;;;20.88;100.00
8697;BME280;4385;48.848;8.924;2023-08-06T00:51:16;96614.53;;;20.88;100.00
8697;BME280;4385;48.848;8.924;2023-08-06T00:53:42;96612.06;;;20.87;100.00
8697;BME280;4385;48.848;8.924;2023-08-06T00:56:09;96601.81;;;20.87;100.00
8697;BME280;4385;48.848;8.924;2023-08-06T00:58:35;96599.31;;;20.85;100.00
8697;BME280;4385;48.848;8.924;2023-08-06T01:01:01;96598.50;;;20.85;100.00
8697;BME280;4385;48.848;8.924;2023-08-06T01:03:27;96595.19;;;20.83;100.00
8697;BME280;4385;48.848;8.924;2023-08-06T01:05:52;96600.28;;;20.83;100.00
8697;BME280;4385;48.848;8.924;2023-08-06T01:08:52;96596.09;;;20.81;100.00
8697;BME280;4385;48.848;8.924;2023-08-06T01:11:32;96589.34;;;20.79;100.00
8697;BME280;4385;48.848;8.924;2023-08-06T01:14:03;96586.81;;;20.79;100.00
8697;BME280;4385;48.848;8.924;2023-08-06T01:16:32;96592.00;;;20.77;100.00
8697;BME280;4385;48.848;8.924;2023-08-06T01:18:58;96589.50;;;20.76;100.00
8697;BME280;4385;48.848;8.924;2023-08-06T01:21:24;96595.31;;;20.79;100.00
8697;BME280;4385;48.848;8.924;2023-08-06T01:23:49;96585.91;;;20.80;100.00
8697;BME280;4385;48.848;8.924;2023-08-06T01:26:29;96591.91;;;20.79;100.00
8697;BME280;4385;48.848;8.924;2023-08-06T01:31:41;96581.75;;;20.77;100.00
8697;BME280;4385;48.848;8.924;2023-08-06T01:34:12;96581.75;;;20.77;100.00
8697;BME280;4385;48.848;8.924;2023-08-06T01:36:40;96582.66;;;20.76;100.00
8697;BME280;4385;48.848;8.924;2023-08-06T01:39:05;96585.22;;;20.76;100.00
8697;BME280;4385;48.848;8.924;2023-08-06T01:41:31;96579.25;;;20.76;100.00
8697;BME280;4385;48.848;8.924;2023-08-06T01:43:56;96586.13;;;20.75;100.00
8697;BME280;4385;48.848;8.924;2023-08-06T01:46:21;96584.38;;;20.76;100.00
8697;BME280;4385;48.848;8.924;2023-08-06T01:48:47;96581.00;;;20.75;100.00
8697;BME280;4385;48.848;8.924;2023-08-06T01:51:12;96581.00;;;20.75;100.00
8697;BME280;4385;48.848;8.924;2023-08-06T01:53:37;96571.66;;;20.74;100.00
8697;BME280;4385;48.848;8.924;2023-08-06T01:56:03;96570.84;;;20.74;100.00
8697;BME280;4385;48.848;8.924;2023-08-06T01:58:28;96564.03;;;20.73;100.00
8697;BME280;4385;48.848;8.924;2023-08-06T02:00:53;96558.13;;;20.72;100.00
8697;BME280;4385;48.848;8.924;2023-08-06T02:03:19;96561.56;;;20.71;100.00
8697;BME280;4385;48.848;8.924;2023-08-06T02:05:44;96559.06;;;20.69;100.00
8697;BME280;4385;48.848;8.924;2023-08-06T02:08:10;96549.66;;;20.70;100.00
8697;BME280;4385;48.848;8.924;2023-08-06T02:10:36;96549.75;;;20.68;100.00
8697;BME280;4385;48.848;8.924;2023-08-06T02:13:01;96536.09;;;20.68;100.00
8697;BME280;4385;48.848;8.924;2023-08-06T02:15:26;96542.13;;;20.67;100.00
8697;BME280;4385;48.848;8.924;2023-08-06T02:17:52;96539.56;;;20.67;100.00
8697;BME280;4385;48.848;8.924;2023-08-06T02:20:17;96527.69;;;20.66;100.00
8697;BME280;4385;48.848;8.924;2023-08-06T02:22:42;96519.16;;;20.65;100.00
8697;BME280;4385;48.848;8.924;2023-08-06T02:25:08;96525.19;;;20.64;100.00
8697;BME280;4385;48.848;8.924;2023-08-06T02:27:33;96514.13;;;20.64;100.00
8697;BME280;4385;48.848;8.924;2023-08-06T02:29:58;96509.84;;;20.64;100.00
8697;BME280;4385;48.848;8.924;2023-08-06T02:32:23;96517.44;;;20.66;100.00
8697;BME280;4385;48.848;8.924;2023-08-06T02:34:49;96512.31;;;20.66;100.00
8697;BME280;4385;48.848;8.924;2023-08-06T02:37:14;96513.22;;;20.65;100.00
8697;BME280;4385;48.848;8.924;2023-08-06T02:39:39;96514.88;;;20.66;100.00
8697;BME280;4385;48.848;8.924;2023-08-06T02:42:07;96508.09;;;20.65;100.00
8697;BME280;4385;48.848;8.924;2023-08-06T02:44:33;96505.53;;;20.65;100.00
8697;BME280;4385;48.848;8.924;2023-08-06T02:46:59;96498.75;;;20.64;100.00
8697;BME280;4385;48.848;8.924;2023-08-06T02:49:25;96498.75;;;20.64;100.00
8697;BME280;4385;48.848;8.924;2023-08-06T02:51:50;96497.78;;;20.66;100.00
8697;BME280;4385;48.848;8.924;2023-08-06T02:54:15;96485.97;;;20.64;100.00
8697;BME280;4385;48.848;8.924;2023-08-06T02:56:44;96483.41;;;20.64;100.00
8697;BME280;4385;48.848;8.924;2023-08-06T02:59:11;96483.41;;;20.64;100.00
8697;BME280;4385;48.848;8.924;2023-08-06T03:01:36;96478.28;;;20.64;100.00
8697;BME280;4385;48.848;8.924;2023-08-06T03:04:02;96485.97;;;20.64;100.00
8697;BME280;4385;48.848;8.924;2023-08-06T03:06:27;96476.63;;;20.63;100.00
8697;BME280;4385;48.848;8.924;2023-08-06T03:08:52;96480.91;;;20.62;100.00
8697;BME280;4385;48.848;8.924;2023-08-06T03:11:17;96497.13;;;20.63;100.00
8697;BME280;4385;48.848;8.924;2023-08-06T03:13:43;96490.31;;;20.62;100.00
8697;BME280;4385;48.848;8.924;2023-08-06T03:16:08;96487.75;;;20.62;100.00
8697;BME280;4385;48.848;8.924;2023-08-06T03:18:33;96493.78;;;20.61;100.00
8697;BME280;4385;48.848;8.924;2023-08-06T03:20:59;96488.66;;;20.61;100.00
8697;BME280;4385;48.848;8.924;2023-08-06T03:23:24;96492.13;;;20.60;100.00
8697;BME280;4385;48.848;8.924;2023-08-06T03:25:49;96487.03;;;20.60;100.00
8697;BME280;4385;48.848;8.924;2023-08-06T03:28:14;96487.03;;;20.60;100.00
8697;BME280;4385;48.848;8.924;2023-08-06T03:30:40;96491.28;;;20.59;100.00
8697;BME280;4385;48.848;8.924;2023-08-06T03:33:05;96492.94;;;20.60;100.00
8697;BME280;4385;48.848;8.924;2023-08-06T03:35:30;96491.22;;;20.61;100.00
8697;BME280;4385;48.848;8.924;2023-08-06T03:37:56;96487.03;;;20.60;100.00
8697;BME280;4385;48.848;8.924;2023-08-06T03:40:21;96491.22;;;20.61;100.00
8697;BME280;4385;48.848;8.924;2023-08-06T03:42:46;96488.66;;;20.61;100.00
8697;BME280;4385;48.848;8.924;2023-08-06T03:45:12;96492.94;;;20.60;100.00
8697;BME280;4385;48.848;8.924;2023-08-06T03:47:37;96493.78;;;20.61;100.00
8697;BME280;4385;48.848;8.924;2023-08-06T03:50:02;96491.22;;;20.61;100.00
8697;BME280;4385;48.848;8.924;2023-08-06T03:52:28;96497.25;;;20.60;100.00
8697;BME280;4385;48.848;8.924;2023-08-06T03:54:53;96493.00;;;20.59;100.00
8697;BME280;4385;48.848;8.924;2023-08-06T03:57:18;96490.47;;;20.59;100.00
8697;BME280;4385;48.848;8.924;2023-08-06T03:59:43;96497.25;;;20.60;100.00
8697;BME280;4385;48.848;8.924;2023-08-06T04:02:09;96497.25;;;20.60;100.00
8697;BME280;4385;48.848;8.924;2023-08-06T04:04:34;96492.94;;;20.60;100.00
8697;BME280;4385;48.848;8.924;2023-08-06T04:06:59;96499.81;;;20.60;100.00
8697;BME280;4385;48.848;8.924;2023-08-06T04:09:25;96508.38;;;20.59;100.00
8697;BME280;4385;48.848;8.924;2023-08-06T04:11:50;96495.56;;;20.59;100.00
8697;BME280;4385;48.848;8.924;2023-08-06T04:14:15;96494.75;;;20.58;100.00
8697;BME280;4385;48.848;8.924;2023-08-06T04:16:40;96491.38;;;20.58;100.00
8697;BME280;4385;48.848;8.924;2023-08-06T04:19:06;96483.69;;;20.58;100.00
8697;BME280;4385;48.848;8.924;2023-08-06T04:21:31;96493.09;;;20.57;100.00
8697;BME280;4385;48.848;8.924;2023-08-06T04:23:56;96499.03;;;20.58;100.00
8697;BME280;4385;48.848;8.924;2023-08-06T04:26:22;96490.53;;;20.57;100.00
8697;BME280;4385;48.848;8.924;2023-08-06T04:28:47;96493.94;;;20.58;100.00
8697;BME280;4385;48.848;8.924;2023-08-06T04:31:13;96493.94;;;20.58;100.00
8697;BME280;4385;48.848;8.924;2023-08-06T04:33:39;96500.75;;;20.57;100.00
8697;BME280;4385;48.848;8.924;2023-08-06T04:36:04;96501.53;;;20.59;100.00
8697;BME280;4385;48.848;8.924;2023-08-06T04:38:29;96499.75;;;20.61;100.00
8697;BME280;4385;48.848;8.924;2023-08-06T04:40:55;96501.47;;;20.61;100.00
8697;BME280;4385;48.848;8.924;2023-08-06T04:43:20;96503.19;;;20.60;100.00
8697;BME280;4385;48.848;8.924;2023-08-06T04:45:49;96504.03;;;20.61;100.00
8697;BME280;4385;48.848;8.924;2023-08-06T04:48:15;96512.59;;;20.60;100.00
8697;BME280;4385;48.848;8.924;2023-08-06T04:50:44;96508.38;;;20.59;100.00
8697;BME280;4385;48.848;8.924;2023-08-06T04:53:10;96507.50;;;20.60;100.00
8697;BME280;4385;48.848;8.924;2023-08-06T04:55:35;96504.03;;;20.61;100.00
8697;BME280;4385;48.848;8.924;2023-08-06T04:58:00;96506.59;;;20.61;100.00
8697;BME280;4385;48.848;8.924;2023-08-06T05:00:26;96502.38;;;20.60;100.00
8697;BME280;4385;48.848;8.924;2023-08-06T05:02:51;96510.84;;;20.60;100.00
8697;BME280;4385;48.848;8.924;2023-08-06T05:05:16;96502.38;;;20.60;100.00
8697;BME280;4385;48.848;8.924;2023-08-06T05:07:41;96500.69;;;20.59;100.00
8697;BME280;4385;48.848;8.924;2023-08-06T05:10:07;96496.41;;;20.59;100.00
8697;BME280;4385;48.848;8.924;2023-08-06T05:12:32;96492.13;;;20.60;100.00
8697;BME280;4385;48.848;8.924;2023-08-06T05:14:58;96495.56;;;20.59;100.00
8697;BME280;4385;48.848;8.924;2023-08-06T05:17:23;96493.09;;;20.57;100.00
8697;BME280;4385;48.848;8.924;2023-08-06T05:19:49;96498.22;;;20.57;100.00
8697;BME280;4385;48.848;8.924;2023-08-06T05:22:14;96493.09;;;20.57;100.00
8697;BME280;4385;48.848;8.924;2023-08-06T05:24:39;96495.56;;;20.59;100.00
8697;BME280;4385;48.848;8.924;2023-08-06T05:27:05;96493.94;;;20.58;100.00
8697;BME280;4385;48.848;8.924;2023-08-06T05:29:30;96504.16;;;20.58;100.00
8697;BME280;4385;48.848;8.924;2023-08-06T05:31:55;96504.16;;;20.58;100.00
8697;BME280;4385;48.848;8.924;2023-08-06T05:34:21;96511.84;;;20.58;100.00
8697;BME280;4385;48.848;8.924;2023-08-06T05:36:46;96511.84;;;20.58;100.00
8697;BME280;4385;48.848;8.924;2023-08-06T05:39:11;96514.41;;;20.58;100.00
8697;BME280;4385;48.848;8.924;2023-08-06T05:41:37;96523.72;;;20.59;100.00
8697;BME280;4385;48.848;8.924;2023-08-06T05:44:02;96517.72;;;20.60;100.00
8697;BME280;4385;48.848;8.924;2023-08-06T05:46:27;96524.56;;;20.59;100.00
8697;BME280;4385;48.848;8.924;2023-08-06T05:48:52;96529.63;;;20.61;100.00
8697;BME280;4385;48.848;8.924;2023-08-06T05:51:18;96538.19;;;20.60;100.00
8697;BME280;4385;48.848;8.924;2023-08-06T05:53:44;96527.97;;;20.60;100.00
8697;BME280;4385;48.848;8.924;2023-08-06T05:56:11;96529.69;;;20.59;100.00
8697;BME280;4385;48.848;8.924;2023-08-06T05:58:36;96534.72;;;20.61;100.00
8697;BME280;4385;48.848;8.924;2023-08-06T06:01:01;96524.56;;;20.59;100.00
8697;BME280;4385;48.848;8.924;2023-08-06T06:03:26;96525.41;;;20.60;100.00
8697;BME280;4385;48.848;8.924;2023-08-06T06:05:52;96528.78;;;20.60;100.00
8697;BME280;4385;48.848;8.924;2023-08-06T06:08:17;96525.41;;;20.60;100.00
8697;BME280;4385;48.848;8.924;2023-08-06T06:10:42;96528.78;;;20.60;100.00
8697;BME280;4385;48.848;8.924;2023-08-06T06:13:08;96522.84;;;20.60;100.00
8697;BME280;4385;48.848;8.924;2023-08-06T06:15:33;96526.22;;;20.60;100.00
8697;BME280;4385;48.848;8.924;2023-08-06T06:17:58;96533.09;;;20.60;100.00
8697;BME280;4385;48.848;8.924;2023-08-06T06:20:23;96531.41;;;20.59;100.00
8697;BME280;4385;48.848;8.924;2023-08-06T06:22:49;96535.72;;;20.58;100.00
8697;BME280;4385;48.848;8.924;2023-08-06T06:25:14;96538.28;;;20.58;100.00
8697;BME280;4385;48.848;8.924;2023-08-06T06:27:39;96536.53;;;20.59;100.00
8697;BME280;4385;48.848;8.924;2023-08-06T06:30:05;96544.19;;;20.59;100.00
8697;BME280;4385;48.848;8.924;2023-08-06T06:32:31;96549.25;;;20.60;100.00
8697;BME280;4385;48.848;8.924;2023-08-06T06:34:56;96545.88;;;20.60;100.00
8697;BME280;4385;48.848;8.924;2023-08-06T06:37:21;96548.44;;;20.60;100.00
8697;BME280;4385;48.848;8.924;2023-08-06T06:39:46;96553.56;;;20.60;100.00
8697;BME280;4385;48.848;8.924;2023-08-06T06:42:12;96556.13;;;20.60;100.00
8697;BME280;4385;48.848;8.924;2023-08-06T06:44:37;96555.28;;;20.59;100.00
8697;BME280;4385;48.848;8.924;2023-08-06T06:47:03;96551.81;;;20.60;100.00
8697;BME280;4385;48.848;8.924;2023-08-06T06:49:28;96558.69;;;20.60;100.00
8697;BME280;4385;48.848;8.924;2023-08-06T06:51:53;96553.56;;;20.60;100.00
8697;BME280;4385;48.848;8.924;2023-08-06T06:54:19;96555.22;;;20.61;100.00
8697;BME280;4385;48.848;8.924;2023-08-06T06:56:44;96547.53;;;20.61;100.00
8697;BME280;4385;48.848;8.924;2023-08-06T06:59:09;96544.13;;;20.60;100.00
8697;BME280;4385;48.848;8.924;2023-08-06T07:01:34;96544.13;;;20.60;100.00
8697;BME280;4385;48.848;8.924;2023-08-06T07:04:00;96552.66;;;20.61;100.00
8697;BME280;4385;48.848;8.924;2023-08-06T07:06:29;96555.22;;;20.61;100.00
8697;BME280;4385;48.848;8.924;2023-08-06T07:08:55;96555.22;;;20.61;100.00
8697;BME280;4385;48.848;8.924;2023-08-06T07:11:20;96547.59;;;20.59;100.00
8697;BME280;4385;48.848;8.924;2023-08-06T07:13:45;96556.13;;;20.60;100.00
8697;BME280;4385;48.848;8.924;2023-08-06T07:16:10;96553.56;;;20.60;100.00
8697;BME280;4385;48.848;8.924;2023-08-06T07:18:36;96556.13;;;20.60;100.00
8697;BME280;4385;48.848;8.924;2023-08-06T07:21:01;96562.13;;;20.59;100.00
8697;BME280;4385;48.848;8.924;2023-08-06T07:23:26;96563.88;;;20.58;100.00
8697;BME280;4385;48.848;8.924;2023-08-06T07:25:52;96566.44;;;20.58;100.00
8697;BME280;4385;48.848;8.924;2023-08-06T07:28:17;96569.78;;;20.59;100.00
8697;BME280;4385;48.848;8.924;2023-08-06T07:30:44;96571.53;;;20.58;100.00
8697;BME280;4385;48.848;8.924;2023-08-06T07:33:10;96570.72;;;20.58;100.00
8697;BME280;4385;48.848;8.924;2023-08-06T07:35:36;96569.06;;;20.56;100.00
8697;BME280;4385;48.848;8.924;2023-08-06T07:38:01;96575.91;;;20.56;100.00
8697;BME280;4385;48.848;8.924;2023-08-06T07:40:27;96574.97;;;20.57;100.00
8697;BME280;4385;48.848;8.924;2023-08-06T07:42:53;96569.06;;;20.56;100.00
8697;BME280;4385;48.848;8.924;2023-08-06T07:45:18;96571.63;;;20.56;100.00
8697;BME280;4385;48.848;8.924;2023-08-06T07:47:44;96568.22;;;20.56;100.00
8697;BME280;4385;48.848;8.924;2023-08-06T07:50:09;96564.75;;;20.57;100.00
8697;BME280;4385;48.848;8.924;2023-08-06T07:52:35;96563.94;;;20.56;100.00
8697;BME280;4385;48.848;8.924;2023-08-06T07:55:01;96559.63;;;20.57;100.00
8697;BME280;4385;48.848;8.924;2023-08-06T07:57:30;96558.81;;;20.56;100.00
8697;BME280;4385;48.848;8.924;2023-08-06T07:59:55;96563.94;;;20.56;100.00
8697;BME280;4385;48.848;8.924;2023-08-06T08:02:21;96557.13;;;20.55;100.00
8697;BME280;4385;48.848;8.924;2023-08-06T08:04:46;96558.81;;;20.56;100.00
8697;BME280;4385;48.848;8.924;2023-08-06T08:07:12;96562.19;;;20.57;100.00
8697;BME280;4385;48.848;8.924;2023-08-06T08:09:38;96562.13;;;20.59;100.00
8697;BME280;4385;48.848;8.924;2023-08-06T08:12:03;96565.59;;;20.58;100.00
8697;BME280;4385;48.848;8.924;2023-08-06T08:14:29;96563.88;;;20.58;100.00
8697;BME280;4385;48.848;8.924;2023-08-06T08:16:54;96552.78;;;20.58;100.00
8697;BME280;4385;48.848;8.924;2023-08-06T08:19:20;96557.84;;;20.59;100.00
8697;BME280;4385;48.848;8.924;2023-08-06T08:21:46;96554.50;;;20.57;100.00
8697;BME280;4385;48.848;8.924;2023-08-06T08:24:11;96555.34;;;20.58;100.00
8697;BME280;4385;48.848;8.924;2023-08-06T08:26:36;96551.88;;;20.59;100.00
8697;BME280;4385;48.848;8.924;2023-08-06T08:29:02;96551.94;;;20.57;100.00
8697;BME280;4385;48.848;8.924;2023-08-06T08:31:27;96553.69;;;20.56;100.00
8697;BME280;4385;48.848;8.924;2023-08-06T08:33:53;96557.91;;;20.58;100.00
8697;BME280;4385;48.848;8.924;2023-08-06T08:36:19;96552.88;;;20.56;100.00
8697;BME280;4385;48.848;8.924;2023-08-06T08:38:44;96554.50;;;20.57;100.00
8697;BME280;4385;48.848;8.924;2023-08-06T08:41:10;96561.31;;;20.58;100.00
8697;BME280;4385;48.848;8.924;2023-08-06T08:43:36;96555.28;;;20.59;100.00
8697;BME280;4385;48.848;8.924;2023-08-06T08:46:03;96553.56;;;20.60;100.00
8697;BME280;4385;48.848;8.924;2023-08-06T08:48:29;96554.38;;;20.60;100.00
8697;BME280;4385;48.848;8.924;2023-08-06T08:50:55;96550.94;;;20.61;100.00
8697;BME280;4385;48.848;8.924;2023-08-06T08:53:21;96557.69;;;20.62;100.00
8697;BME280;4385;48.848;8.924;2023-08-06T08:55:48;96552.56;;;20.62;100.00
8697;BME280;4385;48.848;8.924;2023-08-06T08:58:14;96553.41;;;20.63;100.00
8697;BME280;4385;48.848;8.924;2023-08-06T09:00:41;96562.75;;;20.64;100.00
8697;BME280;4385;48.848;8.924;2023-08-06T09:03:07;96560.19;;;20.64;100.00
8697;BME280;4385;48.848;8.924;2023-08-06T09:05:33;96558.53;;;20.63;100.00
8697;BME280;4385;48.848;8.924;2023-08-06T09:08:04;96563.66;;;20.63;100.00
8697;BME280;4385;48.848;8.924;2023-08-06T09:10:30;96570.44;;;20.64;100.00
8697;BME280;4385;48.848;8.924;2023-08-06T09:12:57;96570.44;;;20.64;100.00
8697;BME280;4385;48.848;8.924;2023-08-06T09:15:26;96575.53;;;20.64;100.00
8697;BME280;4385;48.848;8.924;2023-08-06T09:17:52;96575.53;;;20.64;100.00
8697;BME280;4385;48.848;8.924;2023-08-06T09:20:18;96578.09;;;20.64;100.00
8697;BME280;4385;48.848;8.924;2023-08-06T09:22:43;96578.09;;;20.64;100.00
8697;BME280;4385;48.848;8.924;2023-08-06T09:25:10;96593.47;;;20.64;100.00
8697;BME280;4385;48.848;8.924;2023-08-06T09:27:37;96589.25;;;20.63;100.00
8697;BME280;4385;48.848;8.924;2023-08-06T09:30:03;96586.69;;;20.63;100.00
8697;BME280;4385;48.848;8.924;2023-08-06T09:32:46;96587.56;;;20.62;100.00
8697;BME280;4385;48.848;8.924;2023-08-06T09:35:19;96583.28;;;20.62;100.00
8697;BME280;4385;48.848;8.924;2023-08-06T09:37:44;96588.41;;;20.62;100.00
8697;BME280;4385;48.848;8.924;2023-08-06T09:40:30;96586.69;;;20.63;100.00
8697;BME280;4385;48.848;8.924;2023-08-06T09:42:56;96582.44;;;20.62;100.00
8697;BME280;4385;48.848;8.924;2023-08-06T09:45:22;96579.91;;;20.62;100.00
8697;BME280;4385;48.848;8.924;2023-08-06T09:47:52;96582.44;;;20.62;100.00
8697;BME280;4385;48.848;8.924;2023-08-06T09:50:20;96583.28;;;20.62;100.00
8697;BME280;4385;48.848;8.924;2023-08-06T09:52:50;96588.41;;;20.62;100.00
8697;BME280;4385;48.848;8.924;2023-08-06T09:55:18;96588.41;;;20.62;100.00
8697;BME280;4385;48.848;8.924;2023-08-06T09:57:43;96586.69;;;20.63;100.00
8697;BME280;4385;48.848;8.924;2023-08-06T10:00:10;96579.00;;;20.63;100.00
8697;BME280;4385;48.848;8.924;2023-08-06T10:02:37;96594.38;;;20.63;100.00
8697;BME280;4385;48.848;8.924;2023-08-06T10:05:03;96604.59;;;20.63;100.00
8697;BME280;4385;48.848;8.924;2023-08-06T10:07:30;96596.03;;;20.64;100.00
8697;BME280;4385;48.848;8.924;2023-08-06T10:09:56;96599.34;;;20.66;100.00
8697;BME280;4385;48.848;8.924;2023-08-06T10:12:22;96594.31;;;20.64;100.00
8697;BME280;4385;48.848;8.924;2023-08-06T10:14:51;96606.25;;;20.64;100.00
8697;BME280;4385;48.848;8.924;2023-08-06T10:17:20;96609.59;;;20.66;100.00
8697;BME280;4385;48.848;8.924;2023-08-06T10:19:47;96609.59;;;20.66;100.00
8697;BME280;4385;48.848;8.924;2023-08-06T10:22:14;96603.63;;;20.65;100.00
8697;BME280;4385;48.848;8.924;2023-08-06T10:24:54;96608.75;;;20.65;100.00
8697;BME280;4385;48.848;8.924;2023-08-06T10:30:09;96612.22;;;20.64;100.00
8697;BME280;4385;48.848;8.924;2023-08-06T10:32:47;96622.44;;;20.64;100.00
8697;BME280;4385;48.848;8.924;2023-08-06T10:35:28;96623.34;;;20.63;100.00
8697;BME280;4385;48.848;8.924;2023-08-06T10:40:28;96625.91;;;20.63;100.00
8697;BME280;4385;48.848;8.924;2023-08-06T10:42:58;96639.53;;;20.64;100.00
8697;BME280;4385;48.848;8.924;2023-08-06T10:45:23;96640.38;;;20.64;100.00
8697;BME280;4385;48.848;8.924;2023-08-06T10:47:53;96642.88;;;20.66;100.00
8697;BME280;4385;48.848;8.924;2023-08-06T10:50:18;96647.06;;;20.67;100.00
8697;BME280;4385;48.848;8.924;2023-08-06T10:52:45;96646.22;;;20.66;100.00
8697;BME280;4385;48.848;8.924;2023-08-06T10:55:11;96653.03;;;20.67;100.00
8697;BME280;4385;48.848;8.924;2023-08-06T10:57:37;96647.06;;;20.67;100.00
8697;BME280;4385;48.848;8.924;2023-08-06T11:00:05;96649.56;;;20.68;100.00
8697;BME280;4385;48.848;8.924;2023-08-06T11:02:35;96650.41;;;20.69;100.00
8697;BME280;4385;48.848;8.924;2023-08-06T11:05:10;96652.97;;;20.69;100.00
8697;BME280;4385;48.848;8.924;2023-08-06T11:07:37;96650.41;;;20.69;100.00
8697;BME280;4385;48.848;8.924;2023-08-06T11:10:21;96661.47;;;20.69;100.00
8697;BME280;4385;48.848;8.924;2023-08-06T11:12:46;96652.13;;;20.68;100.00
8697;BME280;4385;48.848;8.924;2023-08-06T11:15:11;96650.41;;;20.69;100.00
8697;BME280;4385;48.848;8.924;2023-08-06T11:17:37;96655.53;;;20.69;100.00
8697;BME280;4385;48.848;8.924;2023-08-06T11:20:04;96662.38;;;20.68;100.00
8697;BME280;4385;48.848;8.924;2023-08-06T11:22:30;96673.44;;;20.69;100.00
8697;BME280;4385;48.848;8.924;2023-08-06T11:24:55;96678.63;;;20.67;100.00
8697;BME280;4385;48.848;8.924;2023-08-06T11:27:21;96677.78;;;20.67;100.00
8697;BME280;4385;48.848;8.924;2023-08-06T11:29:46;96688.03;;;20.67;100.00
8697;BME280;4385;48.848;8.924;2023-08-06T11:32:12;96686.38;;;20.66;100.00
8697;BME280;4385;48.848;8.924;2023-08-06T11:34:38;96695.78;;;20.65;100.00
8697;BME280;4385;48.848;8.924;2023-08-06T11:37:04;96689.00;;;20.64;100.00
8697;BME280;4385;48.848;8.924;2023-08-06T11:39:34;96694.94;;;20.65;100.00
8697;BME280;4385;48.848;8.924;2023-08-06T11:42:00;96713.63;;;20.67;100.00
8697;BME280;4385;48.848;8.924;2023-08-06T11:44:30;96696.63;;;20.66;100.00
8697;BME280;4385;48.848;8.924;2023-08-06T11:46:57;96699.91;;;20.68;100.00
8697;BME280;4385;48.848;8.924;2023-08-06T11:49:41;96717.91;;;20.66;100.00
8697;BME280;4385;48.848;8.924;2023-08-06T11:52:17;96706.84;;;20.66;100.00
8697;BME280;4385;48.848;8.924;2023-08-06T11:54:45;96723.88;;;20.67;100.00
8697;BME280;4385;48.848;8.924;2023-08-06T11:57:11;96730.69;;;20.66;100.00
8697;BME280;4385;48.848;8.924;2023-08-06T11:59:38;96732.44;;;20.66;100.00
8697;BME280;4385;48.848;8.924;2023-08-06T12:02:05;96728.16;;;20.66;100.00
8697;BME280;4385;48.848;8.924;2023-08-06T12:05:01;96731.63;;;20.65;100.00
8697;BME280;4385;48.848;8.924;2023-08-06T12:07:29;96741.00;;;20.65;100.00
8697;BME280;4385;48.848;8.924;2023-08-06T12:09:55;96746.13;;;20.65;100.00
8697;BME280;4385;48.848;8.924;2023-08-06T12:12:20;96747.03;;;20.64;100.00
8697;BME280;4385;48.848;8.924;2023-08-06T12:14:45;96750.44;;;20.64;100.00
8697;BME280;4385;48.848;8.924;2023-08-06T12:17:11;96744.47;;;20.64;100.00
8697;BME280;4385;48.848;8.924;2023-08-06T12:19:36;96751.31;;;20.63;100.00
8697;BME280;4385;48.848;8.924;2023-08-06T12:22:01;96744.47;;;20.64;100.00
8697;BME280;4385;48.848;8.924;2023-08-06T12:24:27;96746.25;;;20.62;100.00
8697;BME280;4385;48.848;8.924;2023-08-06T12:26:56;96751.38;;;20.62;100.00
8697;BME280;4385;48.848;8.924;2023-08-06T12:29:22;96739.41;;;20.62;100.00
8697;BME280;4385;48.848;8.924;2023-08-06T12:31:48;96746.25;;;20.62;100.00
8697;BME280;4385;48.848;8.924;2023-08-06T12:34:13;96736.03;;;20.62;100.00
8697;BME280;4385;48.848;8.924;2023-08-06T12:36:39;96744.59;;;20.61;100.00
8697;BME280;4385;48.848;8.924;2023-08-06T12:39:04;96741.13;;;20.62;100.00
8697;BME280;4385;48.848;8.924;2023-08-06T12:41:29;96761.63;;;20.62;100.00
8697;BME280;4385;48.848;8.924;2023-08-06T12:43:55;96755.75;;;20.60;100.00
8697;BME280;4385;48.848;8.924;2023-08-06T12:46:20;96759.97;;;20.61;100.00
8697;BME280;4385;48.848;8.924;2023-08-06T12:48:45;96763.38;;;20.61;100.00
8697;BME280;4385;48.848;8.924;2023-08-06T12:51:10;96756.50;;;20.62;100.00
8697;BME280;4385;48.848;8.924;2023-08-06T12:53:36;96759.91;;;20.62;100.00
8697;BME280;4385;48.848;8.924;2023-08-06T12:56:01;96760.75;;;20.63;100.00
8697;BME280;4385;48.848;8.924;2023-08-06T12:58:26;96759.84;;;20.64;100.00
8697;BME280;4385;48.848;8.924;2023-08-06T13:00:52;96759.84;;;20.64;100.00
8697;BME280;4385;48.848;8.924;2023-08-06T13:03:17;96761.50;;;20.65;100.00
8697;BME280;4385;48.848;8.924;2023-08-06T13:05:43;96770.91;;;20.64;100.00
8697;BME280;4385;48.848;8.924;2023-08-06T13:08:09;96778.53;;;20.66;100.00
8697;BME280;4385;48.848;8.924;2023-08-06T13:10:34;96768.28;;;20.66;100.00
8697;BME280;4385;48.848;8.924;2023-08-06T13:13:00;96784.47;;;20.66;100.00